No particular awareness of the weather is required.    There are no Weather-warnings


Meteo18 Weather Cam more information Meteo18 Weather Cam


Thunder radar more information blitzortung!


Rain radar more information rain snow radar


Visit our other weather sites:

Template documentation
and downloads

And another site



Weather Underground History page Text

Daily Summary for May 21, 2017 Units:  Metric    English   Both
« Previous Day
Next Day »
Daily Weekly Monthly Yearly Custom
  High: Low: Average:
Temperature: 20.7 °C 6.0 °C 14.3 °C
Dew Point: 11.8 °C 5.4 °C 9 °C
Humidity: 97 % 47 % 74 %
Wind Speed: 17.7 km/h 0.0 km/h 3.8 km/h
Wind Gust: 22.5 km/h - -
Wind:- - ENE
Pressure: 1027.0 hPa 1019.5 hPa -
Precipitation: 0.3 mm    
Historical Graphs
 
 
Tabular Data for May 21, 2017
Time Temperature Dew Point Pressure Wind Wind Speed Wind Gust Humidity Rainfall Rate (Hourly)
00:02 8.8 °C 8.0 °C 1026.6 hPa Calm     95 % 0.0 mm
00:07 8.8 °C 8.0 °C 1026.6 hPa WNW 1.6 km/h   95 % 0.0 mm
00:12 8.7 °C 7.9 °C 1026.6 hPa Calm     95 % 0.0 mm
00:17 8.7 °C 7.9 °C 1026.6 hPa Calm   3.2 km/h 95 % 0.0 mm
00:22 8.6 °C 7.8 °C 1026.6 hPa Calm   3.2 km/h 95 % 0.0 mm
00:27 8.6 °C 8.0 °C 1026.6 hPa Calm   3.2 km/h 96 % 0.0 mm
00:37 8.7 °C 8.1 °C 1026.6 hPa NNE 1.6 km/h 1.6 km/h 96 % 0.0 mm
00:42 8.6 °C 8.0 °C 1026.6 hPa Calm   3.2 km/h 96 % 0.0 mm
00:52 8.3 °C 7.5 °C 1026.6 hPa Calm   3.2 km/h 95 % 0.0 mm
01:02 8.0 °C 7.4 °C 1026.6 hPa Calm   1.6 km/h 96 % 0.0 mm
01:12 7.9 °C 7.3 °C 1026.6 hPa Calm   1.6 km/h 96 % 0.0 mm
01:17 7.9 °C 7.3 °C 1027.0 hPa Calm   1.6 km/h 96 % 0.0 mm
01:22 7.9 °C 7.3 °C 1027.0 hPa Calm   1.6 km/h 96 % 0.0 mm
01:32 7.9 °C 7.3 °C 1026.6 hPa Calm   1.6 km/h 96 % 0.0 mm
01:42 7.8 °C 7.2 °C 1026.6 hPa Calm     96 % 0.3 mm
01:52 7.7 °C 7.1 °C 1026.6 hPa Calm     96 % 0.3 mm
01:57 7.6 °C 7.0 °C 1026.6 hPa Calm     96 % 0.3 mm
02:02 7.5 °C 6.9 °C 1026.6 hPa Calm     96 % 0.3 mm
02:07 7.5 °C 6.9 °C 1026.6 hPa Calm     96 % 0.3 mm
02:12 7.4 °C 6.8 °C 1026.6 hPa Calm     96 % 0.3 mm
02:17 7.4 °C 6.8 °C 1026.6 hPa Calm     96 % 0.3 mm
02:22 7.5 °C 6.9 °C 1026.6 hPa Calm     96 % 0.3 mm
02:32 7.4 °C 7.0 °C 1026.6 hPa Calm     97 % 0.3 mm
02:37 7.5 °C 7.1 °C 1026.6 hPa Calm     97 % 0.3 mm
02:42 7.5 °C 6.9 °C 1026.6 hPa Calm     96 % 0.0 mm
02:52 7.3 °C 6.7 °C 1026.3 hPa Calm     96 % 0.0 mm
03:02 7.1 °C 6.5 °C 1026.3 hPa Calm     96 % 0.0 mm
03:12 7.1 °C 6.7 °C 1026.3 hPa Calm     97 % 0.0 mm
03:17 7.2 °C 6.8 °C 1026.3 hPa Calm     97 % 0.0 mm
03:22 7.2 °C 6.8 °C 1026.3 hPa Calm     97 % 0.0 mm
03:27 7.3 °C 6.9 °C 1026.3 hPa Calm     97 % 0.0 mm
03:32 7.3 °C 6.9 °C 1026.3 hPa Calm     97 % 0.0 mm
03:42 7.0 °C 6.4 °C 1026.3 hPa Calm   1.6 km/h 96 % 0.0 mm
03:52 6.7 °C 6.1 °C 1026.3 hPa ENE 1.6 km/h 1.6 km/h 96 % 0.0 mm
04:02 6.6 °C 6.0 °C 1026.3 hPa Calm   4.8 km/h 96 % 0.0 mm
04:12 6.4 °C 5.8 °C 1026.3 hPa Calm   3.2 km/h 96 % 0.0 mm
04:17 6.6 °C 6.2 °C 1026.3 hPa Calm   1.6 km/h 97 % 0.0 mm
04:22 6.6 °C 6.2 °C 1026.3 hPa Calm   1.6 km/h 97 % 0.0 mm
04:32 6.2 °C 5.6 °C 1026.3 hPa Calm     96 % 0.0 mm
04:42 6.3 °C 5.9 °C 1026.3 hPa Calm     97 % 0.0 mm
04:47 6.3 °C 5.9 °C 1026.3 hPa Calm     97 % 0.0 mm
04:52 6.3 °C 5.9 °C 1026.3 hPa Calm     97 % 0.0 mm
05:02 6.2 °C 5.8 °C 1026.3 hPa Calm     97 % 0.0 mm
05:12 6.0 °C 5.4 °C 1026.3 hPa Calm     96 % 0.0 mm
05:17 6.2 °C 5.8 °C 1026.0 hPa Calm     97 % 0.0 mm
05:22 6.3 °C 5.9 °C 1026.0 hPa Calm     97 % 0.0 mm
05:32 6.1 °C 5.7 °C 1026.0 hPa Calm     97 % 0.0 mm
05:42 6.0 °C 5.6 °C 1026.3 hPa Calm     97 % 0.0 mm
05:52 6.0 °C 5.6 °C 1026.3 hPa Calm     97 % 0.0 mm
05:57 6.0 °C 5.6 °C 1026.3 hPa Calm     97 % 0.0 mm
06:02 6.0 °C 5.6 °C 1026.3 hPa Calm     97 % 0.0 mm
06:07 6.1 °C 5.7 °C 1026.3 hPa Calm     97 % 0.0 mm
06:12 6.1 °C 5.7 °C 1026.3 hPa Calm     97 % 0.0 mm
06:17 6.2 °C 5.8 °C 1026.3 hPa Calm     97 % 0.0 mm
06:22 6.2 °C 5.8 °C 1026.3 hPa Calm     97 % 0.0 mm
06:32 6.2 °C 5.8 °C 1026.3 hPa Calm     97 % 0.0 mm
06:42 6.5 °C 6.1 °C 1026.3 hPa Calm     97 % 0.0 mm
06:47 6.4 °C 5.8 °C 1026.3 hPa North 1.6 km/h   96 % 0.0 mm
06:52 6.7 °C 6.3 °C 1026.3 hPa Calm     97 % 0.0 mm
06:57 6.8 °C 6.2 °C 1026.3 hPa Calm   1.6 km/h 96 % 0.0 mm
07:02 7.1 °C 6.5 °C 1026.3 hPa Calm   1.6 km/h 96 % 0.0 mm
07:12 7.6 °C 7.0 °C 1026.3 hPa Calm     96 % 0.0 mm
07:17 8.3 °C 7.9 °C 1026.3 hPa Calm     97 % 0.0 mm
07:22 8.4 °C 7.8 °C 1026.3 hPa Calm     96 % 0.0 mm
07:32 8.9 °C 8.3 °C 1026.6 hPa Calm     96 % 0.0 mm
07:37 9.1 °C 8.5 °C 1026.6 hPa Calm   1.6 km/h 96 % 0.0 mm
07:42 9.2 °C 8.6 °C 1026.6 hPa Calm   1.6 km/h 96 % 0.0 mm
07:47 9.5 °C 8.9 °C 1026.6 hPa Calm   1.6 km/h 96 % 0.0 mm
07:52 9.9 °C 9.4 °C 1026.6 hPa Calm   1.6 km/h 97 % 0.0 mm
08:02 10.9 °C 10.4 °C 1026.3 hPa Calm     97 % 0.0 mm
08:12 11.1 °C 10.3 °C 1026.3 hPa Calm     95 % 0.0 mm
08:17 11.1 °C 10.3 °C 1026.3 hPa Calm     95 % 0.0 mm
08:22 11.4 °C 10.6 °C 1026.3 hPa Calm     95 % 0.0 mm
08:32 11.7 °C 10.6 °C 1026.3 hPa Calm     93 % 0.0 mm
08:42 11.9 °C 10.5 °C 1026.3 hPa Calm     91 % 0.0 mm
08:47 12.2 °C 10.4 °C 1026.3 hPa Calm     89 % 0.0 mm
08:52 12.4 °C 10.3 °C 1026.3 hPa Calm     87 % 0.0 mm
09:02 12.7 °C 10.6 °C 1026.6 hPa Calm   3.2 km/h 87 % 0.0 mm
09:12 13.2 °C 10.7 °C 1026.6 hPa Calm   4.8 km/h 85 % 0.0 mm
09:17 13.3 °C 10.8 °C 1026.6 hPa NE 3.2 km/h 4.8 km/h 85 % 0.0 mm
09:22 13.4 °C 10.9 °C 1026.6 hPa NE 3.2 km/h 4.8 km/h 85 % 0.0 mm
09:32 13.8 °C 11.1 °C 1026.6 hPa ESE 1.6 km/h 4.8 km/h 84 % 0.0 mm
09:42 14.1 °C 11.3 °C 1026.6 hPa ENE 4.8 km/h 6.4 km/h 83 % 0.0 mm
09:52 14.4 °C 11.2 °C 1026.3 hPa NE 6.4 km/h 6.4 km/h 81 % 0.0 mm
09:57 14.5 °C 10.9 °C 1026.3 hPa ENE 6.4 km/h 9.7 km/h 79 % 0.0 mm
10:02 14.7 °C 11.5 °C 1026.3 hPa ENE 6.4 km/h 9.7 km/h 81 % 0.0 mm
10:12 14.9 °C 11.3 °C 1026.3 hPa ENE 3.2 km/h 9.7 km/h 79 % 0.0 mm
10:17 15.0 °C 10.6 °C 1026.3 hPa East 4.8 km/h 9.7 km/h 75 % 0.0 mm
10:22 15.2 °C 11.0 °C 1026.3 hPa NE 3.2 km/h 9.7 km/h 76 % 0.0 mm
10:32 15.3 °C 10.9 °C 1026.3 hPa NNE 4.8 km/h 11.3 km/h 75 % 0.0 mm
10:42 15.6 °C 11.6 °C 1026.0 hPa ESE 9.7 km/h 12.9 km/h 77 % 0.0 mm
10:47 15.8 °C 11.6 °C 1026.0 hPa ENE 12.9 km/h 12.9 km/h 76 % 0.0 mm
10:52 15.7 °C 11.1 °C 1026.0 hPa NNE 8.0 km/h 11.3 km/h 74 % 0.0 mm
11:02 16.1 °C 11.3 °C 1026.0 hPa ENE 9.7 km/h 12.9 km/h 73 % 0.0 mm
11:12 16.3 °C 11.0 °C 1026.0 hPa ENE 3.2 km/h 11.3 km/h 71 % 0.0 mm
11:17 16.4 °C 10.9 °C 1026.0 hPa NNE 6.4 km/h 11.3 km/h 70 % 0.0 mm
11:22 16.5 °C 10.8 °C 1026.0 hPa NE 4.8 km/h 11.3 km/h 69 % 0.0 mm
11:32 16.8 °C 9.7 °C 1026.0 hPa ENE 8.0 km/h 14.5 km/h 63 % 0.0 mm
11:42 17.3 °C 10.4 °C 1025.6 hPa NE 3.2 km/h 14.5 km/h 64 % 0.0 mm
11:47 17.4 °C 11.0 °C 1025.6 hPa ENE 3.2 km/h 11.3 km/h 66 % 0.0 mm
11:52 17.4 °C 10.5 °C 1025.6 hPa ENE 9.7 km/h 11.3 km/h 64 % 0.0 mm
12:02 17.4 °C 10.5 °C 1025.6 hPa ENE 4.8 km/h 14.5 km/h 64 % 0.0 mm
12:12 17.6 °C 10.2 °C 1025.6 hPa East 9.7 km/h 17.7 km/h 62 % 0.0 mm
12:17 17.7 °C 10.3 °C 1025.6 hPa East 6.4 km/h 17.7 km/h 62 % 0.0 mm
12:22 17.4 °C 9.3 °C 1025.6 hPa ENE 3.2 km/h 17.7 km/h 59 % 0.0 mm
12:32 17.8 °C 9.9 °C 1025.3 hPa NNE 4.8 km/h 17.7 km/h 60 % 0.0 mm
12:37 17.7 °C 9.8 °C 1025.3 hPa ENE 3.2 km/h 17.7 km/h 60 % 0.0 mm
12:42 17.8 °C 9.7 °C 1025.3 hPa NE 6.4 km/h 17.7 km/h 59 % 0.0 mm
12:47 18.0 °C 9.1 °C 1025.3 hPa ENE 6.4 km/h 12.9 km/h 56 % 0.0 mm
12:52 18.1 °C 8.9 °C 1025.3 hPa ENE 1.6 km/h 12.9 km/h 55 % 0.0 mm
13:02 18.4 °C 9.2 °C 1024.9 hPa ENE 4.8 km/h 16.1 km/h 55 % 0.0 mm
13:12 18.7 °C 8.9 °C 1024.9 hPa ENE 6.4 km/h 17.7 km/h 53 % 0.0 mm
13:17 18.8 °C 8.2 °C 1024.9 hPa ENE 12.9 km/h 17.7 km/h 50 % 0.0 mm
13:22 18.7 °C 8.4 °C 1024.9 hPa NE 8.0 km/h 17.7 km/h 51 % 0.0 mm
13:32 19.1 °C 8.4 °C 1024.6 hPa East 4.8 km/h 17.7 km/h 50 % 0.0 mm
13:37 19.2 °C 8.5 °C 1024.6 hPa ENE 9.7 km/h 9.7 km/h 50 % 0.0 mm
13:42 19.2 °C 7.9 °C 1024.6 hPa NE 14.5 km/h 14.5 km/h 48 % 0.0 mm
13:52 19.1 °C 7.5 °C 1024.6 hPa East 8.0 km/h 20.9 km/h 47 % 0.0 mm
14:02 19.2 °C 8.8 °C 1024.3 hPa ESE 4.8 km/h 20.9 km/h 51 % 0.0 mm
14:12 19.6 °C 8.6 °C 1024.3 hPa East 3.2 km/h 17.7 km/h 49 % 0.0 mm
14:22 19.5 °C 8.8 °C 1024.3 hPa ENE 8.0 km/h 14.5 km/h 50 % 0.0 mm
14:27 19.7 °C 8.7 °C 1024.3 hPa NE 11.3 km/h 20.9 km/h 49 % 0.0 mm
14:32 20.0 °C 9.6 °C 1023.9 hPa ESE 3.2 km/h 20.9 km/h 51 % 0.0 mm
14:42 20.1 °C 9.1 °C 1023.9 hPa East 8.0 km/h 14.5 km/h 49 % 0.0 mm
14:47 19.9 °C 8.6 °C 1023.9 hPa East 4.8 km/h 14.5 km/h 48 % 0.0 mm
14:52 20.0 °C 9.3 °C 1023.6 hPa East 8.0 km/h 14.5 km/h 50 % 0.0 mm
15:02 20.1 °C 9.6 °C 1023.6 hPa East 11.3 km/h 14.5 km/h 51 % 0.0 mm
15:12 20.3 °C 9.5 °C 1023.6 hPa ENE 11.3 km/h 16.1 km/h 50 % 0.0 mm
15:17 20.2 °C 9.4 °C 1023.6 hPa ENE 17.7 km/h 20.9 km/h 50 % 0.0 mm
15:22 20.0 °C 8.7 °C 1023.6 hPa ENE 4.8 km/h 20.9 km/h 48 % 0.0 mm
15:32 20.3 °C 11.0 °C 1023.6 hPa ENE 8.0 km/h 20.9 km/h 55 % 0.0 mm
15:42 19.8 °C 9.4 °C 1023.2 hPa NNE 11.3 km/h 16.1 km/h 51 % 0.0 mm
15:47 19.9 °C 9.2 °C 1023.2 hPa NE 9.7 km/h 22.5 km/h 50 % 0.0 mm
15:52 19.9 °C 9.5 °C 1023.2 hPa NE 4.8 km/h 22.5 km/h 51 % 0.0 mm
15:57 20.1 °C 9.4 °C 1023.2 hPa ENE 1.6 km/h 17.7 km/h 50 % 0.0 mm
16:02 20.3 °C 9.5 °C 1023.2 hPa ENE 4.8 km/h 17.7 km/h 50 % 0.0 mm
16:12 20.1 °C 9.4 °C 1022.9 hPa East 4.8 km/h 14.5 km/h 50 % 0.0 mm
16:17 20.3 °C 9.2 °C 1022.9 hPa East 1.6 km/h 17.7 km/h 49 % 0.0 mm
16:22 20.3 °C 9.8 °C 1022.9 hPa ENE 9.7 km/h 17.7 km/h 51 % 0.0 mm
16:32 20.2 °C 9.7 °C 1022.6 hPa East 8.0 km/h 14.5 km/h 51 % 0.0 mm
16:37 20.3 °C 9.2 °C 1022.6 hPa ENE 6.4 km/h 16.1 km/h 49 % 0.0 mm
16:42 20.2 °C 9.7 °C 1022.6 hPa NE 11.3 km/h 16.1 km/h 51 % 0.0 mm
16:47 20.3 °C 9.8 °C 1022.2 hPa NE 9.7 km/h 14.5 km/h 51 % 0.0 mm
16:52 20.1 °C 9.4 °C 1022.2 hPa ENE 3.2 km/h 14.5 km/h 50 % 0.0 mm
16:57 20.2 °C 9.7 °C 1022.2 hPa East 3.2 km/h 16.1 km/h 51 % 0.0 mm
17:02 20.4 °C 10.2 °C 1022.2 hPa East 12.9 km/h 16.1 km/h 52 % 0.0 mm
17:07 20.3 °C 9.2 °C 1022.2 hPa NNE 9.7 km/h 16.1 km/h 49 % 0.0 mm
17:12 20.3 °C 9.5 °C 1021.9 hPa NE 12.9 km/h 16.1 km/h 50 % 0.0 mm
17:17 20.4 °C 10.2 °C 1022.2 hPa ENE 6.4 km/h 16.1 km/h 52 % 0.0 mm
17:22 20.3 °C 9.5 °C 1022.2 hPa ENE 4.8 km/h 16.1 km/h 50 % 0.0 mm
17:32 20.5 °C 9.4 °C 1021.9 hPa ESE 4.8 km/h 14.5 km/h 49 % 0.0 mm
17:37 20.5 °C 9.7 °C 1021.9 hPa NNE 8.0 km/h 12.9 km/h 50 % 0.0 mm
17:42 20.5 °C 9.4 °C 1021.6 hPa NE 17.7 km/h 20.9 km/h 49 % 0.0 mm
17:47 20.4 °C 9.6 °C 1021.6 hPa ENE 9.7 km/h 20.9 km/h 50 % 0.0 mm
17:52 20.4 °C 8.7 °C 1021.6 hPa ENE 9.7 km/h 20.9 km/h 47 % 0.0 mm
18:02 20.6 °C 10.1 °C 1021.6 hPa ENE 1.6 km/h 19.3 km/h 51 % 0.0 mm
18:07 20.7 °C 10.5 °C 1021.6 hPa East 4.8 km/h 16.1 km/h 52 % 0.0 mm
18:12 20.7 °C 9.9 °C 1021.6 hPa ENE 11.3 km/h 16.1 km/h 50 % 0.0 mm
18:17 20.6 °C 8.9 °C 1021.6 hPa ENE 1.6 km/h 14.5 km/h 47 % 0.0 mm
18:22 20.6 °C 9.2 °C 1021.2 hPa NE 4.8 km/h 17.7 km/h 48 % 0.0 mm
18:27 20.6 °C 9.8 °C 1021.2 hPa ENE 12.9 km/h 17.7 km/h 50 % 0.0 mm
18:32 20.5 °C 9.4 °C 1021.2 hPa East 3.2 km/h 19.3 km/h 49 % 0.0 mm
18:37 20.5 °C 10.0 °C 1021.2 hPa ENE 9.7 km/h 19.3 km/h 51 % 0.0 mm
18:42 20.5 °C 10.3 °C 1021.2 hPa NE 6.4 km/h 19.3 km/h 52 % 0.0 mm
18:52 20.6 °C 10.7 °C 1021.2 hPa East 6.4 km/h 12.9 km/h 53 % 0.0 mm
19:02 20.4 °C 9.9 °C 1020.9 hPa ESE 8.0 km/h 12.9 km/h 51 % 0.0 mm
19:07 20.4 °C 10.5 °C 1020.9 hPa East 4.8 km/h 12.9 km/h 53 % 0.0 mm
19:12 20.3 °C 10.7 °C 1020.9 hPa ENE 6.4 km/h 12.9 km/h 54 % 0.0 mm
19:17 20.3 °C 9.8 °C 1020.9 hPa East 6.4 km/h 16.1 km/h 51 % 0.0 mm
19:22 20.2 °C 9.7 °C 1020.9 hPa ENE 9.7 km/h 16.1 km/h 51 % 0.0 mm
19:32 20.1 °C 10.5 °C 1020.5 hPa East 3.2 km/h 17.7 km/h 54 % 0.0 mm
19:37 20.1 °C 10.8 °C 1020.5 hPa ENE 3.2 km/h 11.3 km/h 55 % 0.0 mm
19:42 19.9 °C 10.9 °C 1020.5 hPa ENE 6.4 km/h 11.3 km/h 56 % 0.0 mm
19:47 19.8 °C 11.0 °C 1020.5 hPa ENE 6.4 km/h 9.7 km/h 57 % 0.0 mm
19:52 19.7 °C 10.7 °C 1020.5 hPa ENE 6.4 km/h 9.7 km/h 56 % 0.0 mm
19:57 19.6 °C 11.1 °C 1020.5 hPa ENE 3.2 km/h 9.7 km/h 58 % 0.0 mm
20:02 19.5 °C 11.3 °C 1020.5 hPa ENE 3.2 km/h 9.7 km/h 59 % 0.0 mm
20:12 19.2 °C 11.5 °C 1020.5 hPa ENE 3.2 km/h 8.0 km/h 61 % 0.0 mm
20:17 18.9 °C 11.5 °C 1020.5 hPa East 3.2 km/h 6.4 km/h 62 % 0.0 mm
20:22 18.8 °C 11.8 °C 1020.5 hPa ENE 4.8 km/h 6.4 km/h 64 % 0.0 mm
20:32 18.4 °C 11.5 °C 1020.5 hPa ENE 1.6 km/h 4.8 km/h 64 % 0.0 mm
20:42 18.1 °C 11.4 °C 1020.2 hPa ENE 3.2 km/h 4.8 km/h 65 % 0.0 mm
20:47 17.9 °C 11.5 °C 1020.2 hPa ENE 1.6 km/h 4.8 km/h 66 % 0.0 mm
20:52 17.8 °C 11.1 °C 1020.2 hPa ENE 1.6 km/h 4.8 km/h 65 % 0.0 mm
21:02 17.7 °C 10.6 °C 1020.2 hPa NE 3.2 km/h 4.8 km/h 63 % 0.0 mm
21:12 17.6 °C 10.5 °C 1020.2 hPa NNE 3.2 km/h 4.8 km/h 63 % 0.0 mm
21:17 17.6 °C 10.2 °C 1020.2 hPa NE 3.2 km/h 4.8 km/h 62 % 0.0 mm
21:22 17.4 °C 10.3 °C 1020.2 hPa NE 3.2 km/h 4.8 km/h 63 % 0.0 mm
21:32 17.1 °C 10.7 °C 1020.2 hPa NE 3.2 km/h 6.4 km/h 66 % 0.0 mm
21:37 16.9 °C 10.5 °C 1020.2 hPa NE 3.2 km/h 8.0 km/h 66 % 0.0 mm
21:42 16.7 °C 10.5 °C 1020.2 hPa NE 4.8 km/h 8.0 km/h 67 % 0.0 mm
21:47 16.5 °C 10.6 °C 1019.9 hPa NE 3.2 km/h 8.0 km/h 68 % 0.0 mm
21:57 16.3 °C 10.6 °C 1020.2 hPa NE 3.2 km/h 6.4 km/h 69 % 0.0 mm
22:07 15.9 °C 10.4 °C 1019.9 hPa NE 3.2 km/h 6.4 km/h 70 % 0.0 mm
22:12 15.9 °C 10.4 °C 1020.2 hPa NE 3.2 km/h 6.4 km/h 70 % 0.0 mm
22:17 15.9 °C 10.4 °C 1019.9 hPa NNE 4.8 km/h 6.4 km/h 70 % 0.0 mm
22:22 15.9 °C 10.2 °C 1019.9 hPa NE 4.8 km/h 6.4 km/h 69 % 0.0 mm
22:32 15.7 °C 10.2 °C 1019.9 hPa NE 6.4 km/h 8.0 km/h 70 % 0.0 mm
22:42 15.4 °C 10.0 °C 1019.9 hPa NE 4.8 km/h 8.0 km/h 70 % 0.0 mm
22:47 15.3 °C 10.1 °C 1019.9 hPa NE 4.8 km/h 9.7 km/h 71 % 0.0 mm
22:52 15.1 °C 10.1 °C 1019.9 hPa NE 4.8 km/h 9.7 km/h 72 % 0.0 mm
22:57 14.8 °C 10.0 °C 1019.5 hPa ENE 4.8 km/h 9.7 km/h 73 % 0.0 mm
23:02 14.8 °C 10.0 °C 1019.5 hPa NE 6.4 km/h 9.7 km/h 73 % 0.0 mm
23:12 14.8 °C 10.0 °C 1019.5 hPa ENE 4.8 km/h 9.7 km/h 73 % 0.0 mm
23:17 14.8 °C 10.0 °C 1019.5 hPa ENE 4.8 km/h 9.7 km/h 73 % 0.0 mm
23:22 14.6 °C 10.0 °C 1019.5 hPa ENE 3.2 km/h 9.7 km/h 74 % 0.0 mm
23:27 14.4 °C 10.0 °C 1019.5 hPa East 3.2 km/h 8.0 km/h 75 % 0.0 mm
23:32 14.3 °C 9.9 °C 1019.5 hPa ENE 1.6 km/h 8.0 km/h 75 % 0.0 mm
23:37 14.2 °C 9.8 °C 1019.5 hPa East 3.2 km/h 6.4 km/h 75 % 0.0 mm
23:42 14.2 °C 9.8 °C 1019.5 hPa ENE 1.6 km/h 6.4 km/h 75 % 0.0 mm
23:52 14.5 °C 9.7 °C 1019.5 hPa ENE 4.8 km/h 4.8 km/h 73 % 0.0 mm
23:57 14.4 °C 9.6 °C 1019.5 hPa ENE 4.8 km/h 6.4 km/h 73 % 0.0 mm
Meteo18
Compliments of Weather Underground - 4 mb

Script developed by  Jim McMurry - jmcmurry@mwt.net Adapted for the template by  Wim van der Kuil - Leuven-Template.eu

You find our weather info also at:

European Weather Network

Weather Underground

Equipment we use:

Weather-station
Davis Vue

Weather-program
Meteohub

Weather-server
Raspberry PI 2 B+

Provider
1 and 1

Davis Vue

Meteohub

Raspberry PI 2 B+

1 and 1